sensor_id;sensor_type;location;lat;lon;timestamp;temperature;humidity
16301;DHT22;8258;51.020;4.248;2023-05-10T00:01:35;12.70;99.90
16301;DHT22;8258;51.020;4.248;2023-05-10T00:04:02;12.70;99.90
16301;DHT22;8258;51.020;4.248;2023-05-10T00:14:16;12.70;99.90
16301;DHT22;8258;51.020;4.248;2023-05-10T00:16:44;12.70;99.90
16301;DHT22;8258;51.020;4.248;2023-05-10T00:19:11;12.70;99.90
16301;DHT22;8258;51.020;4.248;2023-05-10T00:21:38;12.70;99.90
16301;DHT22;8258;51.020;4.248;2023-05-10T00:24:05;12.70;99.90
16301;DHT22;8258;51.020;4.248;2023-05-10T00:26:32;12.80;99.90
16301;DHT22;8258;51.020;4.248;2023-05-10T00:28:59;12.70;99.90
16301;DHT22;8258;51.020;4.248;2023-05-10T00:31:28;12.70;99.90
16301;DHT22;8258;51.020;4.248;2023-05-10T00:33:55;12.70;99.90
16301;DHT22;8258;51.020;4.248;2023-05-10T00:36:22;12.70;99.90
16301;DHT22;8258;51.020;4.248;2023-05-10T00:38:49;12.70;99.90
16301;DHT22;8258;51.020;4.248;2023-05-10T00:41:16;12.60;99.90
16301;DHT22;8258;51.020;4.248;2023-05-10T00:43:43;12.70;99.90
16301;DHT22;8258;51.020;4.248;2023-05-10T00:46:10;12.70;99.90
16301;DHT22;8258;51.020;4.248;2023-05-10T00:48:39;12.70;99.90
16301;DHT22;8258;51.020;4.248;2023-05-10T00:51:06;12.70;99.90
16301;DHT22;8258;51.020;4.248;2023-05-10T00:53:34;12.70;99.90
16301;DHT22;8258;51.020;4.248;2023-05-10T00:56:02;12.70;99.90
16301;DHT22;8258;51.020;4.248;2023-05-10T00:58:29;12.60;99.90
16301;DHT22;8258;51.020;4.248;2023-05-10T01:00:56;12.60;99.90
16301;DHT22;8258;51.020;4.248;2023-05-10T01:03:24;12.60;99.90
16301;DHT22;8258;51.020;4.248;2023-05-10T01:05:53;12.60;99.90
16301;DHT22;8258;51.020;4.248;2023-05-10T01:08:21;12.50;99.90
16301;DHT22;8258;51.020;4.248;2023-05-10T01:10:48;12.50;99.90
16301;DHT22;8258;51.020;4.248;2023-05-10T01:13:23;12.50;99.90
16301;DHT22;8258;51.020;4.248;2023-05-10T01:15:52;12.50;99.90
16301;DHT22;8258;51.020;4.248;2023-05-10T01:18:20;12.50;99.90
16301;DHT22;8258;51.020;4.248;2023-05-10T01:20:57;12.50;99.90
16301;DHT22;8258;51.020;4.248;2023-05-10T01:23:44;12.50;99.90
16301;DHT22;8258;51.020;4.248;2023-05-10T01:26:27;12.50;99.90
16301;DHT22;8258;51.020;4.248;2023-05-10T01:29:12;12.50;99.90
16301;DHT22;8258;51.020;4.248;2023-05-10T01:32:03;12.50;99.90
16301;DHT22;8258;51.020;4.248;2023-05-10T01:34:35;12.50;99.90
16301;DHT22;8258;51.020;4.248;2023-05-10T01:37:09;12.50;99.90
16301;DHT22;8258;51.020;4.248;2023-05-10T01:39:45;12.50;99.90
16301;DHT22;8258;51.020;4.248;2023-05-10T01:42:17;12.50;99.90
16301;DHT22;8258;51.020;4.248;2023-05-10T01:44:51;12.50;99.90
16301;DHT22;8258;51.020;4.248;2023-05-10T01:47:40;12.50;99.90
16301;DHT22;8258;51.020;4.248;2023-05-10T01:50:14;12.50;99.90
16301;DHT22;8258;51.020;4.248;2023-05-10T01:52:42;12.60;99.90
16301;DHT22;8258;51.020;4.248;2023-05-10T01:55:14;12.60;99.90
16301;DHT22;8258;51.020;4.248;2023-05-10T01:57:44;12.60;99.90
16301;DHT22;8258;51.020;4.248;2023-05-10T02:00:12;12.60;99.90
16301;DHT22;8258;51.020;4.248;2023-05-10T02:02:44;12.60;99.90
16301;DHT22;8258;51.020;4.248;2023-05-10T02:05:13;12.60;99.90
16301;DHT22;8258;51.020;4.248;2023-05-10T02:07:41;12.60;99.90
16301;DHT22;8258;51.020;4.248;2023-05-10T02:10:10;12.60;99.90
16301;DHT22;8258;51.020;4.248;2023-05-10T02:12:41;12.60;99.90
16301;DHT22;8258;51.020;4.248;2023-05-10T02:15:09;12.70;99.90
16301;DHT22;8258;51.020;4.248;2023-05-10T02:17:37;12.60;99.90
16301;DHT22;8258;51.020;4.248;2023-05-10T02:25:15;12.60;99.90
16301;DHT22;8258;51.020;4.248;2023-05-10T02:27:44;12.70;99.90
16301;DHT22;8258;51.020;4.248;2023-05-10T02:30:13;12.70;99.90
16301;DHT22;8258;51.020;4.248;2023-05-10T02:32:41;12.70;99.90
16301;DHT22;8258;51.020;4.248;2023-05-10T02:35:09;12.70;99.90
16301;DHT22;8258;51.020;4.248;2023-05-10T02:37:37;12.70;99.90
16301;DHT22;8258;51.020;4.248;2023-05-10T02:40:06;12.70;99.90
16301;DHT22;8258;51.020;4.248;2023-05-10T02:42:37;12.70;99.90
16301;DHT22;8258;51.020;4.248;2023-05-10T02:45:08;12.70;99.90
16301;DHT22;8258;51.020;4.248;2023-05-10T02:47:37;12.70;99.90
16301;DHT22;8258;51.020;4.248;2023-05-10T02:50:05;12.70;99.90
16301;DHT22;8258;51.020;4.248;2023-05-10T02:52:39;12.70;99.90
16301;DHT22;8258;51.020;4.248;2023-05-10T02:55:09;12.70;99.90
16301;DHT22;8258;51.020;4.248;2023-05-10T02:57:43;12.80;99.90
16301;DHT22;8258;51.020;4.248;2023-05-10T03:00:13;12.70;99.90
16301;DHT22;8258;51.020;4.248;2023-05-10T03:02:40;12.70;99.90
16301;DHT22;8258;51.020;4.248;2023-05-10T03:05:07;12.70;99.90
16301;DHT22;8258;51.020;4.248;2023-05-10T03:07:34;12.70;99.90
16301;DHT22;8258;51.020;4.248;2023-05-10T03:10:02;12.60;99.90
16301;DHT22;8258;51.020;4.248;2023-05-10T03:12:38;12.60;99.90
16301;DHT22;8258;51.020;4.248;2023-05-10T03:15:13;12.50;99.90
16301;DHT22;8258;51.020;4.248;2023-05-10T03:17:48;12.50;99.90
16301;DHT22;8258;51.020;4.248;2023-05-10T03:20:22;12.50;99.90
16301;DHT22;8258;51.020;4.248;2023-05-10T03:22:53;12.40;99.90
16301;DHT22;8258;51.020;4.248;2023-05-10T03:25:23;12.50;99.90
16301;DHT22;8258;51.020;4.248;2023-05-10T03:27:52;12.50;99.90
16301;DHT22;8258;51.020;4.248;2023-05-10T03:30:21;12.50;99.90
16301;DHT22;8258;51.020;4.248;2023-05-10T03:32:49;12.50;99.90
16301;DHT22;8258;51.020;4.248;2023-05-10T03:35:15;12.50;99.90
16301;DHT22;8258;51.020;4.248;2023-05-10T03:37:42;12.50;99.90
16301;DHT22;8258;51.020;4.248;2023-05-10T03:40:10;12.50;99.90
16301;DHT22;8258;51.020;4.248;2023-05-10T03:42:37;12.50;99.90
16301;DHT22;8258;51.020;4.248;2023-05-10T03:45:05;12.50;99.90
16301;DHT22;8258;51.020;4.248;2023-05-10T03:47:34;12.50;99.90
16301;DHT22;8258;51.020;4.248;2023-05-10T03:50:00;12.50;99.90
16301;DHT22;8258;51.020;4.248;2023-05-10T03:52:28;12.50;99.90
16301;DHT22;8258;51.020;4.248;2023-05-10T03:54:55;12.50;99.90
16301;DHT22;8258;51.020;4.248;2023-05-10T03:57:22;12.50;99.90
16301;DHT22;8258;51.020;4.248;2023-05-10T03:59:49;12.50;99.90
16301;DHT22;8258;51.020;4.248;2023-05-10T04:02:16;12.50;99.90
16301;DHT22;8258;51.020;4.248;2023-05-10T04:04:44;12.50;99.90
16301;DHT22;8258;51.020;4.248;2023-05-10T04:07:11;12.50;99.90
16301;DHT22;8258;51.020;4.248;2023-05-10T04:09:38;12.50;99.90
16301;DHT22;8258;51.020;4.248;2023-05-10T04:12:05;12.50;99.90
16301;DHT22;8258;51.020;4.248;2023-05-10T04:14:35;12.50;99.90
16301;DHT22;8258;51.020;4.248;2023-05-10T04:17:02;12.50;99.90
16301;DHT22;8258;51.020;4.248;2023-05-10T04:19:29;12.60;99.90
16301;DHT22;8258;51.020;4.248;2023-05-10T04:21:58;12.60;99.90
16301;DHT22;8258;51.020;4.248;2023-05-10T04:24:25;12.60;99.90
16301;DHT22;8258;51.020;4.248;2023-05-10T04:26:52;12.60;99.90
16301;DHT22;8258;51.020;4.248;2023-05-10T04:29:20;12.60;99.90
16301;DHT22;8258;51.020;4.248;2023-05-10T04:31:47;12.60;99.90
16301;DHT22;8258;51.020;4.248;2023-05-10T04:34:14;12.60;99.90
16301;DHT22;8258;51.020;4.248;2023-05-10T04:36:41;12.60;99.90
16301;DHT22;8258;51.020;4.248;2023-05-10T04:39:10;12.70;99.90
16301;DHT22;8258;51.020;4.248;2023-05-10T04:41:38;12.60;99.90
16301;DHT22;8258;51.020;4.248;2023-05-10T04:44:05;12.60;99.90
16301;DHT22;8258;51.020;4.248;2023-05-10T04:46:32;12.70;99.90
16301;DHT22;8258;51.020;4.248;2023-05-10T04:48:59;12.70;99.90
16301;DHT22;8258;51.020;4.248;2023-05-10T04:51:26;12.70;99.90
16301;DHT22;8258;51.020;4.248;2023-05-10T04:53:53;12.70;99.90
16301;DHT22;8258;51.020;4.248;2023-05-10T04:56:21;12.70;99.90
16301;DHT22;8258;51.020;4.248;2023-05-10T04:58:48;12.80;99.90
16301;DHT22;8258;51.020;4.248;2023-05-10T05:01:16;12.80;99.90
16301;DHT22;8258;51.020;4.248;2023-05-10T05:03:43;12.90;99.90
16301;DHT22;8258;51.020;4.248;2023-05-10T05:06:10;13.00;99.90
16301;DHT22;8258;51.020;4.248;2023-05-10T05:08:37;13.00;99.90
16301;DHT22;8258;51.020;4.248;2023-05-10T05:11:03;13.00;99.90
16301;DHT22;8258;51.020;4.248;2023-05-10T05:13:32;13.00;99.90
16301;DHT22;8258;51.020;4.248;2023-05-10T05:16:00;13.10;99.90
16301;DHT22;8258;51.020;4.248;2023-05-10T05:18:28;13.20;99.90
16301;DHT22;8258;51.020;4.248;2023-05-10T05:20:55;13.30;99.90
16301;DHT22;8258;51.020;4.248;2023-05-10T05:23:22;13.30;99.90
16301;DHT22;8258;51.020;4.248;2023-05-10T05:25:51;13.30;99.90
16301;DHT22;8258;51.020;4.248;2023-05-10T05:28:18;13.40;99.90
16301;DHT22;8258;51.020;4.248;2023-05-10T05:30:46;13.50;99.90
16301;DHT22;8258;51.020;4.248;2023-05-10T05:33:14;13.50;99.90
16301;DHT22;8258;51.020;4.248;2023-05-10T05:35:43;13.60;99.90
16301;DHT22;8258;51.020;4.248;2023-05-10T05:38:13;13.60;99.90
16301;DHT22;8258;51.020;4.248;2023-05-10T05:40:40;13.70;99.90
16301;DHT22;8258;51.020;4.248;2023-05-10T05:43:07;13.70;99.90
16301;DHT22;8258;51.020;4.248;2023-05-10T05:45:34;13.80;99.90
16301;DHT22;8258;51.020;4.248;2023-05-10T05:48:03;13.70;99.90
16301;DHT22;8258;51.020;4.248;2023-05-10T05:50:30;13.80;99.90
16301;DHT22;8258;51.020;4.248;2023-05-10T05:52:57;13.70;99.90
16301;DHT22;8258;51.020;4.248;2023-05-10T05:55:26;13.80;99.90
16301;DHT22;8258;51.020;4.248;2023-05-10T05:57:55;13.80;99.90
16301;DHT22;8258;51.020;4.248;2023-05-10T06:00:22;13.90;99.90
16301;DHT22;8258;51.020;4.248;2023-05-10T06:02:49;14.00;99.90
16301;DHT22;8258;51.020;4.248;2023-05-10T06:05:17;14.00;99.90
16301;DHT22;8258;51.020;4.248;2023-05-10T06:07:44;14.10;99.90
16301;DHT22;8258;51.020;4.248;2023-05-10T06:10:11;14.20;99.90
16301;DHT22;8258;51.020;4.248;2023-05-10T06:12:38;14.20;99.90
16301;DHT22;8258;51.020;4.248;2023-05-10T06:15:06;14.30;99.90
16301;DHT22;8258;51.020;4.248;2023-05-10T06:17:33;14.20;99.90
16301;DHT22;8258;51.020;4.248;2023-05-10T06:20:00;14.30;99.90
16301;DHT22;8258;51.020;4.248;2023-05-10T06:22:28;14.30;99.90
16301;DHT22;8258;51.020;4.248;2023-05-10T06:24:55;14.30;99.90
16301;DHT22;8258;51.020;4.248;2023-05-10T06:27:22;14.20;99.90
16301;DHT22;8258;51.020;4.248;2023-05-10T06:29:49;14.20;99.90
16301;DHT22;8258;51.020;4.248;2023-05-10T06:32:16;14.10;99.90
16301;DHT22;8258;51.020;4.248;2023-05-10T06:34:43;14.10;99.90
16301;DHT22;8258;51.020;4.248;2023-05-10T06:37:10;14.30;99.90
16301;DHT22;8258;51.020;4.248;2023-05-10T06:39:40;14.30;99.90
16301;DHT22;8258;51.020;4.248;2023-05-10T06:42:07;14.20;99.90
16301;DHT22;8258;51.020;4.248;2023-05-10T06:44:34;14.00;99.90
16301;DHT22;8258;51.020;4.248;2023-05-10T06:47:01;14.00;99.90
16301;DHT22;8258;51.020;4.248;2023-05-10T06:49:28;14.00;99.90
16301;DHT22;8258;51.020;4.248;2023-05-10T06:51:55;14.10;99.90
16301;DHT22;8258;51.020;4.248;2023-05-10T06:54:22;14.00;99.90
16301;DHT22;8258;51.020;4.248;2023-05-10T06:56:51;13.90;99.90
16301;DHT22;8258;51.020;4.248;2023-05-10T06:59:18;13.90;99.90
16301;DHT22;8258;51.020;4.248;2023-05-10T07:01:47;13.90;99.90
16301;DHT22;8258;51.020;4.248;2023-05-10T07:04:14;14.00;99.90
16301;DHT22;8258;51.020;4.248;2023-05-10T07:06:41;14.00;99.90
16301;DHT22;8258;51.020;4.248;2023-05-10T07:09:07;14.20;99.90
16301;DHT22;8258;51.020;4.248;2023-05-10T07:11:34;14.20;99.90
16301;DHT22;8258;51.020;4.248;2023-05-10T07:14:04;14.30;99.90
16301;DHT22;8258;51.020;4.248;2023-05-10T07:16:31;14.30;99.90
16301;DHT22;8258;51.020;4.248;2023-05-10T07:18:58;14.40;99.90
16301;DHT22;8258;51.020;4.248;2023-05-10T07:21:25;14.50;99.90
16301;DHT22;8258;51.020;4.248;2023-05-10T07:23:54;14.60;99.90
16301;DHT22;8258;51.020;4.248;2023-05-10T07:26:21;14.70;99.90
16301;DHT22;8258;51.020;4.248;2023-05-10T07:28:47;14.80;99.90
16301;DHT22;8258;51.020;4.248;2023-05-10T07:31:16;14.80;99.90
16301;DHT22;8258;51.020;4.248;2023-05-10T07:33:43;15.00;99.90
16301;DHT22;8258;51.020;4.248;2023-05-10T07:36:10;15.40;99.90
16301;DHT22;8258;51.020;4.248;2023-05-10T07:38:37;15.60;99.90
16301;DHT22;8258;51.020;4.248;2023-05-10T07:41:04;15.70;99.90
16301;DHT22;8258;51.020;4.248;2023-05-10T07:43:31;15.60;99.90
16301;DHT22;8258;51.020;4.248;2023-05-10T07:45:58;15.50;99.90
16301;DHT22;8258;51.020;4.248;2023-05-10T07:48:26;15.30;99.90
16301;DHT22;8258;51.020;4.248;2023-05-10T07:50:53;15.20;99.90
16301;DHT22;8258;51.020;4.248;2023-05-10T07:53:20;15.10;99.90
16301;DHT22;8258;51.020;4.248;2023-05-10T07:55:50;15.30;99.90
16301;DHT22;8258;51.020;4.248;2023-05-10T07:58:17;15.10;99.90
16301;DHT22;8258;51.020;4.248;2023-05-10T08:00:44;14.90;99.90
16301;DHT22;8258;51.020;4.248;2023-05-10T08:03:11;14.70;99.90
16301;DHT22;8258;51.020;4.248;2023-05-10T08:05:39;14.60;99.90
16301;DHT22;8258;51.020;4.248;2023-05-10T08:08:06;14.50;99.90
16301;DHT22;8258;51.020;4.248;2023-05-10T08:10:33;14.40;99.90
16301;DHT22;8258;51.020;4.248;2023-05-10T08:13:00;14.20;99.90
16301;DHT22;8258;51.020;4.248;2023-05-10T08:15:27;14.10;99.90
16301;DHT22;8258;51.020;4.248;2023-05-10T08:17:54;14.00;99.90
16301;DHT22;8258;51.020;4.248;2023-05-10T08:20:21;14.00;99.90
16301;DHT22;8258;51.020;4.248;2023-05-10T08:22:50;13.90;99.90
16301;DHT22;8258;51.020;4.248;2023-05-10T08:25:17;13.90;99.90
16301;DHT22;8258;51.020;4.248;2023-05-10T08:27:44;13.90;99.90
16301;DHT22;8258;51.020;4.248;2023-05-10T08:30:11;13.90;99.90
16301;DHT22;8258;51.020;4.248;2023-05-10T08:32:38;14.00;99.90
16301;DHT22;8258;51.020;4.248;2023-05-10T08:35:05;14.00;99.90
16301;DHT22;8258;51.020;4.248;2023-05-10T08:37:32;14.20;99.90
16301;DHT22;8258;51.020;4.248;2023-05-10T08:40:01;14.20;99.90
16301;DHT22;8258;51.020;4.248;2023-05-10T08:42:30;14.30;99.90
16301;DHT22;8258;51.020;4.248;2023-05-10T08:45:00;14.20;99.90
16301;DHT22;8258;51.020;4.248;2023-05-10T08:47:28;14.10;99.90
16301;DHT22;8258;51.020;4.248;2023-05-10T08:49:56;13.90;99.90
16301;DHT22;8258;51.020;4.248;2023-05-10T08:52:26;14.00;99.90
16301;DHT22;8258;51.020;4.248;2023-05-10T08:54:54;14.10;99.90
16301;DHT22;8258;51.020;4.248;2023-05-10T08:57:23;13.90;99.90
16301;DHT22;8258;51.020;4.248;2023-05-10T08:59:50;13.60;99.90
16301;DHT22;8258;51.020;4.248;2023-05-10T09:02:18;13.40;99.90
16301;DHT22;8258;51.020;4.248;2023-05-10T09:04:46;13.40;99.90
16301;DHT22;8258;51.020;4.248;2023-05-10T09:07:14;13.30;99.90
16301;DHT22;8258;51.020;4.248;2023-05-10T09:09:41;13.30;99.90
16301;DHT22;8258;51.020;4.248;2023-05-10T09:12:09;13.30;99.90
16301;DHT22;8258;51.020;4.248;2023-05-10T09:14:38;13.30;99.90
16301;DHT22;8258;51.020;4.248;2023-05-10T09:17:06;13.20;99.90
16301;DHT22;8258;51.020;4.248;2023-05-10T09:19:33;13.00;99.90
16301;DHT22;8258;51.020;4.248;2023-05-10T09:22:00;12.90;99.90
16301;DHT22;8258;51.020;4.248;2023-05-10T09:24:29;12.80;99.90
16301;DHT22;8258;51.020;4.248;2023-05-10T09:26:57;12.70;99.90
16301;DHT22;8258;51.020;4.248;2023-05-10T09:29:24;12.80;99.90
16301;DHT22;8258;51.020;4.248;2023-05-10T09:31:53;12.70;99.90
16301;DHT22;8258;51.020;4.248;2023-05-10T09:34:31;12.70;99.90
16301;DHT22;8258;51.020;4.248;2023-05-10T09:37:01;12.80;99.90
16301;DHT22;8258;51.020;4.248;2023-05-10T09:39:33;12.80;99.90
16301;DHT22;8258;51.020;4.248;2023-05-10T09:42:02;12.80;99.90
16301;DHT22;8258;51.020;4.248;2023-05-10T09:44:31;12.80;99.90
16301;DHT22;8258;51.020;4.248;2023-05-10T09:46:59;13.00;99.90
16301;DHT22;8258;51.020;4.248;2023-05-10T09:49:26;13.30;99.90
16301;DHT22;8258;51.020;4.248;2023-05-10T09:52:03;13.50;99.90
16301;DHT22;8258;51.020;4.248;2023-05-10T09:54:31;13.90;99.90
16301;DHT22;8258;51.020;4.248;2023-05-10T09:57:00;14.30;99.90
16301;DHT22;8258;51.020;4.248;2023-05-10T09:59:27;14.90;99.90
16301;DHT22;8258;51.020;4.248;2023-05-10T10:01:56;15.00;99.90
16301;DHT22;8258;51.020;4.248;2023-05-10T10:04:25;15.10;99.90
16301;DHT22;8258;51.020;4.248;2023-05-10T10:06:59;14.80;99.90
16301;DHT22;8258;51.020;4.248;2023-05-10T10:09:27;14.60;99.90
16301;DHT22;8258;51.020;4.248;2023-05-10T10:11:54;14.40;99.90
16301;DHT22;8258;51.020;4.248;2023-05-10T10:14:22;14.20;99.90
16301;DHT22;8258;51.020;4.248;2023-05-10T10:16:51;14.40;99.90
16301;DHT22;8258;51.020;4.248;2023-05-10T10:19:19;14.50;99.90
16301;DHT22;8258;51.020;4.248;2023-05-10T10:21:48;14.50;99.90
16301;DHT22;8258;51.020;4.248;2023-05-10T10:24:16;14.60;99.90
16301;DHT22;8258;51.020;4.248;2023-05-10T10:26:43;14.70;99.90
16301;DHT22;8258;51.020;4.248;2023-05-10T10:29:21;14.80;99.90
16301;DHT22;8258;51.020;4.248;2023-05-10T10:31:55;14.90;99.90
16301;DHT22;8258;51.020;4.248;2023-05-10T10:34:26;15.00;99.90
16301;DHT22;8258;51.020;4.248;2023-05-10T10:36:56;14.80;99.90
16301;DHT22;8258;51.020;4.248;2023-05-10T10:39:24;14.80;99.90
16301;DHT22;8258;51.020;4.248;2023-05-10T10:41:52;14.80;99.90
16301;DHT22;8258;51.020;4.248;2023-05-10T10:44:34;14.90;99.90
16301;DHT22;8258;51.020;4.248;2023-05-10T10:47:07;15.20;99.90
16301;DHT22;8258;51.020;4.248;2023-05-10T10:49:44;15.30;99.90
16301;DHT22;8258;51.020;4.248;2023-05-10T10:52:23;15.40;99.90
16301;DHT22;8258;51.020;4.248;2023-05-10T10:54:53;15.20;99.90
16301;DHT22;8258;51.020;4.248;2023-05-10T10:57:21;15.30;99.90
16301;DHT22;8258;51.020;4.248;2023-05-10T10:59:48;15.50;99.90
16301;DHT22;8258;51.020;4.248;2023-05-10T11:02:36;15.60;99.90
16301;DHT22;8258;51.020;4.248;2023-05-10T11:05:38;15.50;99.90
16301;DHT22;8258;51.020;4.248;2023-05-10T11:08:19;15.40;99.90
16301;DHT22;8258;51.020;4.248;2023-05-10T11:11:08;15.50;99.90
16301;DHT22;8258;51.020;4.248;2023-05-10T11:13:39;15.60;99.90
16301;DHT22;8258;51.020;4.248;2023-05-10T11:16:16;15.60;99.90
16301;DHT22;8258;51.020;4.248;2023-05-10T11:19:08;15.50;99.90
16301;DHT22;8258;51.020;4.248;2023-05-10T11:21:45;15.40;99.90
16301;DHT22;8258;51.020;4.248;2023-05-10T11:24:15;15.40;99.90
16301;DHT22;8258;51.020;4.248;2023-05-10T11:52:24;15.70;99.90
16301;DHT22;8258;51.020;4.248;2023-05-10T11:54:51;15.70;99.90
16301;DHT22;8258;51.020;4.248;2023-05-10T11:57:19;15.70;99.90
16301;DHT22;8258;51.020;4.248;2023-05-10T11:59:46;15.70;99.90
16301;DHT22;8258;51.020;4.248;2023-05-10T12:02:13;15.70;99.90
16301;DHT22;8258;51.020;4.248;2023-05-10T12:04:41;15.90;99.90
16301;DHT22;8258;51.020;4.248;2023-05-10T12:07:08;15.60;99.90
16301;DHT22;8258;51.020;4.248;2023-05-10T12:09:37;15.50;99.90
16301;DHT22;8258;51.020;4.248;2023-05-10T12:12:04;15.50;99.90
16301;DHT22;8258;51.020;4.248;2023-05-10T12:14:34;15.50;99.90
16301;DHT22;8258;51.020;4.248;2023-05-10T12:17:01;15.70;99.90
16301;DHT22;8258;51.020;4.248;2023-05-10T12:19:28;15.60;99.90
16301;DHT22;8258;51.020;4.248;2023-05-10T12:22:04;15.70;99.90
16301;DHT22;8258;51.020;4.248;2023-05-10T12:24:34;15.50;99.90
16301;DHT22;8258;51.020;4.248;2023-05-10T12:27:07;15.30;99.90
16301;DHT22;8258;51.020;4.248;2023-05-10T12:29:34;15.20;99.90
16301;DHT22;8258;51.020;4.248;2023-05-10T12:32:02;15.20;99.90
16301;DHT22;8258;51.020;4.248;2023-05-10T12:34:31;15.40;99.90
16301;DHT22;8258;51.020;4.248;2023-05-10T12:36:59;15.60;99.90
16301;DHT22;8258;51.020;4.248;2023-05-10T12:39:26;15.70;99.90
16301;DHT22;8258;51.020;4.248;2023-05-10T12:42:03;15.50;99.90
16301;DHT22;8258;51.020;4.248;2023-05-10T12:44:32;15.20;99.90
16301;DHT22;8258;51.020;4.248;2023-05-10T12:46:59;15.20;99.90
16301;DHT22;8258;51.020;4.248;2023-05-10T12:49:26;15.10;99.90
16301;DHT22;8258;51.020;4.248;2023-05-10T12:51:53;15.00;99.90
16301;DHT22;8258;51.020;4.248;2023-05-10T12:54:20;15.30;99.90
16301;DHT22;8258;51.020;4.248;2023-05-10T12:56:47;15.30;99.90
16301;DHT22;8258;51.020;4.248;2023-05-10T12:59:14;15.30;99.90
16301;DHT22;8258;51.020;4.248;2023-05-10T13:01:42;15.20;99.90
16301;DHT22;8258;51.020;4.248;2023-05-10T13:04:09;15.20;99.90
16301;DHT22;8258;51.020;4.248;2023-05-10T13:06:36;15.20;99.90
16301;DHT22;8258;51.020;4.248;2023-05-10T13:09:03;15.40;99.90
16301;DHT22;8258;51.020;4.248;2023-05-10T13:11:30;15.40;99.90
16301;DHT22;8258;51.020;4.248;2023-05-10T13:13:57;15.40;99.90
16301;DHT22;8258;51.020;4.248;2023-05-10T13:16:24;15.30;99.90
16301;DHT22;8258;51.020;4.248;2023-05-10T13:18:52;15.40;99.90
16301;DHT22;8258;51.020;4.248;2023-05-10T13:21:19;15.50;99.90
16301;DHT22;8258;51.020;4.248;2023-05-10T13:23:46;15.40;99.90
16301;DHT22;8258;51.020;4.248;2023-05-10T13:26:13;15.30;99.90
16301;DHT22;8258;51.020;4.248;2023-05-10T13:28:40;15.20;99.90
16301;DHT22;8258;51.020;4.248;2023-05-10T13:31:07;15.20;99.90
16301;DHT22;8258;51.020;4.248;2023-05-10T13:33:34;15.40;99.90
16301;DHT22;8258;51.020;4.248;2023-05-10T13:36:03;15.60;99.90
16301;DHT22;8258;51.020;4.248;2023-05-10T13:38:30;15.60;99.90
16301;DHT22;8258;51.020;4.248;2023-05-10T13:40:57;15.80;99.90
16301;DHT22;8258;51.020;4.248;2023-05-10T13:43:24;15.90;99.90
16301;DHT22;8258;51.020;4.248;2023-05-10T13:45:51;15.90;99.90
16301;DHT22;8258;51.020;4.248;2023-05-10T13:48:17;16.00;99.90
16301;DHT22;8258;51.020;4.248;2023-05-10T13:50:44;16.10;99.90
16301;DHT22;8258;51.020;4.248;2023-05-10T13:53:13;16.10;99.90
16301;DHT22;8258;51.020;4.248;2023-05-10T13:55:41;16.10;99.90
16301;DHT22;8258;51.020;4.248;2023-05-10T13:58:08;16.20;99.90
16301;DHT22;8258;51.020;4.248;2023-05-10T14:00:35;16.20;99.90
16301;DHT22;8258;51.020;4.248;2023-05-10T14:03:02;16.20;99.90
16301;DHT22;8258;51.020;4.248;2023-05-10T14:05:30;16.10;99.90
16301;DHT22;8258;51.020;4.248;2023-05-10T14:07:57;16.30;99.90
16301;DHT22;8258;51.020;4.248;2023-05-10T14:10:25;16.40;99.90
16301;DHT22;8258;51.020;4.248;2023-05-10T14:12:52;16.40;99.90
16301;DHT22;8258;51.020;4.248;2023-05-10T14:15:19;16.20;99.90
16301;DHT22;8258;51.020;4.248;2023-05-10T14:17:46;16.10;99.90
16301;DHT22;8258;51.020;4.248;2023-05-10T14:20:13;16.10;99.90
16301;DHT22;8258;51.020;4.248;2023-05-10T14:22:40;16.10;99.90
16301;DHT22;8258;51.020;4.248;2023-05-10T14:25:08;16.10;99.90
16301;DHT22;8258;51.020;4.248;2023-05-10T14:27:37;16.00;99.90
16301;DHT22;8258;51.020;4.248;2023-05-10T14:30:04;15.80;99.90
16301;DHT22;8258;51.020;4.248;2023-05-10T14:32:31;15.70;99.90
16301;DHT22;8258;51.020;4.248;2023-05-10T14:34:59;15.50;99.90
16301;DHT22;8258;51.020;4.248;2023-05-10T14:37:26;15.40;99.90
16301;DHT22;8258;51.020;4.248;2023-05-10T14:39:53;15.20;99.90
16301;DHT22;8258;51.020;4.248;2023-05-10T14:42:20;15.10;99.90
16301;DHT22;8258;51.020;4.248;2023-05-10T14:44:48;15.00;99.90
16301;DHT22;8258;51.020;4.248;2023-05-10T14:47:16;15.00;99.90
16301;DHT22;8258;51.020;4.248;2023-05-10T14:49:42;15.00;99.90
16301;DHT22;8258;51.020;4.248;2023-05-10T14:52:10;14.80;99.90
16301;DHT22;8258;51.020;4.248;2023-05-10T14:54:37;14.80;99.90
16301;DHT22;8258;51.020;4.248;2023-05-10T14:57:04;14.80;99.90
16301;DHT22;8258;51.020;4.248;2023-05-10T14:59:32;14.80;99.90
16301;DHT22;8258;51.020;4.248;2023-05-10T15:02:00;14.80;99.90
16301;DHT22;8258;51.020;4.248;2023-05-10T15:04:27;14.70;99.90
16301;DHT22;8258;51.020;4.248;2023-05-10T15:06:54;14.60;99.90
16301;DHT22;8258;51.020;4.248;2023-05-10T15:09:24;14.60;99.90
16301;DHT22;8258;51.020;4.248;2023-05-10T15:11:52;14.60;99.90
16301;DHT22;8258;51.020;4.248;2023-05-10T15:14:19;14.50;99.90
16301;DHT22;8258;51.020;4.248;2023-05-10T15:16:46;14.50;99.90
16301;DHT22;8258;51.020;4.248;2023-05-10T15:19:15;14.50;99.90
16301;DHT22;8258;51.020;4.248;2023-05-10T15:21:42;14.40;99.90
16301;DHT22;8258;51.020;4.248;2023-05-10T15:24:10;14.40;99.90
16301;DHT22;8258;51.020;4.248;2023-05-10T15:26:37;14.40;99.90
16301;DHT22;8258;51.020;4.248;2023-05-10T15:29:04;14.50;99.90
16301;DHT22;8258;51.020;4.248;2023-05-10T15:31:31;14.40;99.90
16301;DHT22;8258;51.020;4.248;2023-05-10T15:34:00;14.40;99.90
16301;DHT22;8258;51.020;4.248;2023-05-10T15:36:28;14.30;99.90
16301;DHT22;8258;51.020;4.248;2023-05-10T15:38:55;14.20;99.90
16301;DHT22;8258;51.020;4.248;2023-05-10T15:41:22;14.30;99.90
16301;DHT22;8258;51.020;4.248;2023-05-10T15:43:50;14.30;99.90
16301;DHT22;8258;51.020;4.248;2023-05-10T15:46:17;14.20;99.90
16301;DHT22;8258;51.020;4.248;2023-05-10T15:48:44;14.10;99.90
16301;DHT22;8258;51.020;4.248;2023-05-10T15:51:11;14.00;99.90
16301;DHT22;8258;51.020;4.248;2023-05-10T15:53:39;14.10;99.90
16301;DHT22;8258;51.020;4.248;2023-05-10T15:56:06;14.20;99.90
16301;DHT22;8258;51.020;4.248;2023-05-10T15:58:33;14.10;99.90
16301;DHT22;8258;51.020;4.248;2023-05-10T16:01:00;14.00;99.90
16301;DHT22;8258;51.020;4.248;2023-05-10T16:03:27;14.00;99.90
16301;DHT22;8258;51.020;4.248;2023-05-10T16:05:55;13.90;99.90
16301;DHT22;8258;51.020;4.248;2023-05-10T16:08:22;13.80;99.90
16301;DHT22;8258;51.020;4.248;2023-05-10T16:10:51;13.80;99.90
16301;DHT22;8258;51.020;4.248;2023-05-10T16:13:18;13.80;99.90
16301;DHT22;8258;51.020;4.248;2023-05-10T16:15:45;13.90;99.90
16301;DHT22;8258;51.020;4.248;2023-05-10T16:18:12;14.00;99.90
16301;DHT22;8258;51.020;4.248;2023-05-10T16:20:39;14.10;99.90
16301;DHT22;8258;51.020;4.248;2023-05-10T16:23:06;14.10;99.90
16301;DHT22;8258;51.020;4.248;2023-05-10T16:25:33;14.10;99.90
16301;DHT22;8258;51.020;4.248;2023-05-10T16:28:01;14.20;99.90
16301;DHT22;8258;51.020;4.248;2023-05-10T16:30:28;14.30;99.90
16301;DHT22;8258;51.020;4.248;2023-05-10T16:32:55;14.30;99.90